x

Port Orford - 15 Nm West Of Port Orford, Or (46015) Wave Buoy

3:50pm - Sun 5th Jul 2015 All times are PDT. -7 hours from GMT.

  • Sig Wave height 5.6ft
  • Swell Direction
  • Peak Period 9s
  • Average Period 7s
  • Wind
    9mph, 11mph gusts
  • Sea Temp 50°f
  • Air Temp 52°f
  • Sea Pressure 1014.4mb
  • Port Orford - 15 Nm West Of Port Orford, Or
  • Port Orford - 15 Nm West Of Port Orford, Or

More Historic Weather Station data

Upgrade to MSW Pro to gain access to the past 30 days of data for over 8000 Wavebouys and Weather Stations around the globe.

Join Pro

Comparision Forecast

View Surf forecast
   
Sun 07/05 3:50pm 5.5ft 9s 7s 9 11 mph 1014.4mb 50f 52f
2:50pm 5.5ft 10s 7s 11 13 mph 1014.1mb 50f 52f
1:50pm 5ft 9s 7s 13
mph
1014mb 50f 53f
12:50pm 5.5ft 10s 7s 11 16 mph 1013.7mb 50f 52f
11:50am 5ft 10s 8s 7 11 mph 1013.6mb 50f 52f
10:50am 5ft 8s 7s 7 9 mph 1013.6mb 50f 52f
9:50am 5ft 10s 7s 7
mph
1013.1mb 49f 51f
8:50am 5.5ft 9s 7s 9 11 mph 1012.7mb 50f 52f
7:50am 5.5ft 8s 7s 9 11 mph 1012.4mb 50f 52f
6:50am 5ft 9s 7s 7 9 mph 1012mb 50f 51f
5:50am 5.5ft 9s 7s 4 7 mph 1011.5mb 50f 51f
4:50am 6ft 8s 7s 4 7 mph 1011.4mb 50f 51f
3:50am 6ft 9s 8s 4 7 mph 1011.2mb 49f 52f
2:50am 6ft 9s 8s 4
mph
1011.3mb 49f 51f
1:50am 6.5ft 9s 8s 4 7 mph 1011.2mb 49f 51f
12:50am 6ft 10s 8s 4 7 mph 1011.5mb 49f 51f
Sat 07/04 11:50pm 6ft 9s 7s 7 9 mph 1011.6mb 49f 53f
10:50pm 6ft 10s 8s 7 9 mph 1011.6mb 49f 53f
9:50pm 6ft 10s 7s 9
mph
1011.4mb 49f 54f
8:50pm 7ft 10s 8s 9 11 mph 1011.2mb 49f 54f
7:50pm 6ft 8s 7s 9 11 mph 1010.7mb 50f 54f
6:50pm 6ft 9s 7s 11
mph
1010.6mb 50f 55f
5:50pm 7ft 9s 7s 11 13 mph 1010.8mb 50f 55f
4:50pm 7ft 8s 7s 11 13 mph 1010.9mb 49f 54f
3:50pm 6ft 9s 7s 11 13 mph 1011.2mb 50f 54f
2:50pm 5.5ft 8s 7s 11 13 mph 1011.5mb 50f 54f
1:50pm 6ft 9s 7s 13 16 mph 1011.5mb 49f 54f
12:50pm 6ft 9s 7s 13 16 mph 1011.8mb 49f 53f
11:50am 6ft 8s 7s 13 16 mph 1012.3mb 49f 52f
10:50am 6ft 9s 7s 9 11 mph 1012.8mb 49f 51f
9:50am 6ft 9s 7s 18 22 mph 1012.2mb 49f 52f
8:50am 6ft 9s 6s 16 18 mph 1012.5mb 49f 52f
7:50am 6ft 9s 7s 16 18 mph 1012.3mb 49f 52f
6:50am 6.5ft 8s 7s 11 13 mph 1012.8mb 49f 51f
5:50am 6ft 8s 7s 13 18 mph 1012.4mb 49f 52f
4:50am 6ft 9s 7s 16 18 mph 1012.4mb 49f 52f
3:50am 6ft 9s 6s 13 16 mph 1012.9mb 49f 52f
2:50am 6ft 8s 6s 16 18 mph 1012.9mb 49f 53f
1:50am 6ft 9s 7s 18 20 mph 1012.7mb 49f 52f
12:50am 6.5ft 9s 7s 16 20 mph 1013.2mb 49f 53f
Fri 07/03 11:50pm 6.5ft 9s 7s 16 18 mph 1013.8mb 49f 53f
10:50pm 6ft 8s 7s 13 16 mph 1014.4mb 49f 52f
9:50pm 6.5ft 9s 6s 11 13 mph 1014.3mb 49f 53f
8:50pm 7ft 8s 6s 13 16 mph 1014.1mb 49f 53f
7:50pm 6.5ft 9s 6s 13 16 mph 1014.3mb 49f 53f
6:50pm 7.5ft 9s 6s 13 16 mph 1014.1mb 49f 53f
5:50pm 7ft 8s 6s 16 20 mph 1014mb 49f 54f
4:50pm 7ft 9s 6s 20 22 mph 1013.9mb 49f 55f
3:50pm 7ft 9s 6s 18 22 mph 1014.5mb 49f 54f
2:50pm 7.5ft 8s 6s 20 22 mph 1014.6mb 49f 54f
1:50pm 7.5ft 8s 6s 18 20 mph 1015.1mb 49f 52f
12:50pm 7ft 8s 6s 20 22 mph 1015.4mb 49f 53f
11:50am 8ft 8s 6s 20 22 mph 1015.5mb 49f 53f
10:50am 7ft 9s 6s 20 22 mph 1015.4mb 48f 52f
9:50am 7ft 9s 6s 18 22 mph 1015.6mb 49f 52f
8:50am 7.5ft 9s 6s 20 22 mph 1015.6mb 49f 52f
7:50am 7.5ft 8s 6s 20 22 mph 1015.4mb 49f 52f
6:50am 7.5ft 8s 6s 16 20 mph 1015.5mb 49f 52f
5:50am 7.5ft 9s 6s 18 20 mph 1015.6mb 49f 52f
4:50am 8ft 9s 6s 20 25 mph 1014.8mb 49f 53f
3:50am 8.5ft 8s 6s 25 29 mph 1014.1mb 49f 53f
2:50am 8ft 9s 6s 25 31 mph 1014.2mb 49f 54f
1:50am 7ft 9s 6s 20 22 mph 1014.2mb 49f 53f
12:50am 8ft 8s 6s 18 20 mph 1014.5mb 49f 53f
Thu 07/02 11:50pm 7ft 9s 6s 18 22 mph 1014mb 49f 53f
10:50pm 8ft 8s 6s 18 20 mph 1014.2mb 49f 53f
9:50pm 7.5ft 8s 6s 18 22 mph 1014.1mb 49f 53f
8:50pm 7ft 8s 6s 13 16 mph 1014.5mb 49f 52f
7:50pm 7ft 8s 6s 11 13 mph 1014.8mb 49f 52f
6:50pm 7.5ft 9s 6s 18 20 mph 1014.1mb 49f 54f
5:50pm 7ft 9s 6s 20 22 mph 1014.1mb 49f 54f
4:50pm 7ft 9s 6s 22 25 mph 1013.9mb 49f 55f
3:50pm 8ft 8s 6s 20 27 mph 1014.3mb 49f 55f
2:50pm 7.5ft 9s 6s 20 25 mph 1014.8mb 49f 55f
1:50pm 7ft 8s 6s 20 25 mph 1015mb 49f 54f
12:50pm 8ft 9s 6s 25 29 mph 1015mb 49f 54f
11:50am 9ft 9s 6s 25 29 mph 1015mb 49f 53f
10:50am 8ft 9s 6s 25 29 mph 1015mb 49f 53f
9:50am 8ft 9s 6s 27 29 mph 1015mb 49f 53f
8:50am 7.5ft 9s 6s 22 27 mph 1015.3mb 49f 53f
7:50am 7.5ft 9s 6s 22 25 mph 1015.1mb 49f 53f
6:50am 8ft 9s 6s 20 25 mph 1015.1mb 49f 53f
5:50am 7ft 9s 6s 22 25 mph 1014.9mb 49f 53f
4:50am 7.5ft 9s 6s 22 25 mph 1014.5mb 49f 54f
3:50am 7ft 9s 6s 20 22 mph 1014.6mb 49f 54f
2:50am 8ft 9s 7s 16 18 mph 1014.9mb 49f 53f
1:50am 7.5ft 9s 7s 16 18 mph 1015.3mb 49f 53f
12:50am 8.5ft 9s 7s 16 18 mph 1015.7mb 48f 53f